Time;durP1;ratioP1;P1;durP2;ratioP2;P2;SDS_P1;SDS_P2;PMS_P1;PMS_P2;Temp;Humidity;BMP_temperature;BMP_pressure;BME280_temperature;BME280_humidity;BME280_pressure;Samples;Min_cycle;Max_cycle;Signal;HPM_P1;HPM_P2
2023/10/27 00:02:00;;;;;;;5.60;0.93;;;;;;;;;;10342979;28;20055;-69
2023/10/27 00:07:04;;;;;;;2.45;0.60;;;;;;;;;;10337916;28;20093;-69
2023/10/27 00:12:07;;;;;;;;;;;;;;;;;;10338143;28;20048;-69
2023/10/27 00:17:09;;;;;;;2.20;0.70;;;;;;;;;;10339739;28;19922;-69
2023/10/27 00:22:14;;;;;;;2.40;0.80;;;;;;;;;;10344807;28;20046;-70
2023/10/27 00:27:16;;;;;;;;;;;;;;;;;;10343409;28;20045;-69
2023/10/27 00:32:19;;;;;;;3.70;0.88;;;;;;;;;;10347612;28;19944;-69
2023/10/27 00:37:23;;;;;;;2.63;0.93;;;;;;;;;;10348652;28;20084;-68
2023/10/27 00:42:25;;;;;;;;;;;;;;;;;;10343038;28;20129;-69
2023/10/27 00:47:30;;;;;;;6.13;1.20;;;;;;;;;;10340506;28;19921;-67
2023/10/27 00:52:34;;;;;;;5.40;0.90;;;;;;;;;;10340486;28;20054;-68
2023/10/27 00:57:36;;;;;;;3.88;1.08;;;;;;;;;;10344296;28;20121;-69
2023/10/27 01:02:39;;;;;;;1.83;0.95;;;;;;;;;;10343417;28;20053;-68
2023/10/27 01:07:43;;;;;;;2.67;1.20;;;;;;;;;;10345518;28;20702;-68
2023/10/27 01:12:47;;;;;;;4.45;1.00;;;;;;;;;;10346391;28;20046;-68
2023/10/27 01:17:49;;;;;;;6.75;1.42;;;;;;;;;;10350596;28;20130;-68
2023/10/27 01:22:53;;;;;;;6.68;1.30;;;;;;;;;;10349871;28;20057;-69
2023/10/27 01:27:56;;;;;;;3.08;1.40;;;;;;;;;;10343353;28;20069;-70
2023/10/27 01:32:59;;;;;;;4.03;1.08;;;;;;;;;;10341542;28;20048;-69
2023/10/27 01:38:04;;;;;;;4.65;1.55;;;;;;;;;;10346316;28;20401;-70
2023/10/27 01:43:06;;;;;;;4.07;1.48;;;;;;;;;;10343544;28;20033;-70
2023/10/27 01:48:09;;;;;;;3.95;2.03;;;;;;;;;;10346715;28;20084;-70
2023/10/27 01:53:13;;;;;;;4.90;2.45;;;;;;;;;;10348103;28;20606;-71
2023/10/27 01:58:15;;;;;;;3.40;2.03;;;;;;;;;;10343661;28;20046;-69
2023/10/27 02:03:18;;;;;;;4.38;2.40;;;;;;;;;;10364286;28;20073;-69
2023/10/27 02:08:22;;;;;;;4.68;1.73;;;;;;;;;;10341242;28;20534;-69
2023/10/27 02:13:25;;;;;;;2.72;1.50;;;;;;;;;;10349814;28;20041;-70
2023/10/27 02:18:27;;;;;;;4.78;1.67;;;;;;;;;;10344358;28;20446;-69
2023/10/27 02:23:31;;;;;;;3.90;1.40;;;;;;;;;;10346135;28;20046;-69
2023/10/27 02:28:34;;;;;;;4.80;1.60;;;;;;;;;;10346786;28;20069;-70
2023/10/27 02:33:37;;;;;;;2.90;1.17;;;;;;;;;;10341863;28;20049;-70
2023/10/27 02:38:41;;;;;;;3.97;1.35;;;;;;;;;;10340084;28;20077;-70
2023/10/27 02:43:43;;;;;;;4.40;1.42;;;;;;;;;;10341639;28;20048;-69
2023/10/27 02:48:46;;;;;;;4.85;1.25;;;;;;;;;;10344321;28;20046;-70
2023/10/27 02:53:50;;;;;;;3.53;1.25;;;;;;;;;;10339675;28;20481;-69
2023/10/27 02:58:52;;;;;;;;;;;;;;;;;;10337894;28;20049;-69
2023/10/27 03:03:55;;;;;;;4.43;1.58;;;;;;;;;;10343087;28;19929;-70
2023/10/27 03:08:59;;;;;;;3.17;1.60;;;;;;;;;;10342633;28;20037;-69
2023/10/27 03:14:01;;;;;;;5.90;2.17;;;;;;;;;;10340898;28;20069;-70
2023/10/27 03:19:04;;;;;;;4.70;1.73;;;;;;;;;;10346709;28;20584;-70
2023/10/27 03:24:09;;;;;;;3.88;1.92;;;;;;;;;;10334948;28;20044;-70
2023/10/27 03:29:12;;;;;;;5.03;2.28;;;;;;;;;;10343791;28;20056;-69
2023/10/27 03:34:14;;;;;;;6.22;2.25;;;;;;;;;;10341166;28;20175;-70
2023/10/27 03:39:18;;;;;;;7.18;2.50;;;;;;;;;;10339917;28;20077;-69
2023/10/27 03:44:21;;;;;;;4.43;2.30;;;;;;;;;;10338491;28;20467;-69
2023/10/27 03:49:24;;;;;;;5.07;2.40;;;;;;;;;;10338109;28;20053;-70
2023/10/27 03:54:28;;;;;;;5.72;2.10;;;;;;;;;;10340644;28;20419;-71
2023/10/27 03:59:30;;;;;;;;;;;;;;;;;;10337293;28;20074;-70
2023/10/27 04:04:33;;;;;;;5.00;2.22;;;;;;;;;;10344463;28;20398;-69
2023/10/27 04:09:38;;;;;;;4.03;1.97;;;;;;;;;;10346029;28;20053;-69
2023/10/27 04:14:40;;;;;;;3.38;1.45;;;;;;;;;;10341460;28;20622;-69
2023/10/27 04:19:43;;;;;;;5.70;2.40;;;;;;;;;;10340869;28;20046;-72
2023/10/27 04:24:48;;;;;;;5.75;2.10;;;;;;;;;;10341060;28;20049;-72
2023/10/27 04:29:50;;;;;;;3.17;1.50;;;;;;;;;;10337053;28;20120;-70
2023/10/27 04:34:53;;;;;;;4.22;2.00;;;;;;;;;;10341921;28;20125;-69
2023/10/27 04:39:56;;;;;;;4.15;2.03;;;;;;;;;;10343644;28;20038;-69
2023/10/27 04:44:59;;;;;;;3.60;1.63;;;;;;;;;;10340601;28;20042;-70
2023/10/27 04:50:02;;;;;;;5.82;2.10;;;;;;;;;;10336309;28;20069;-69
2023/10/27 04:55:08;;;;;;;3.95;1.60;;;;;;;;;;10349199;28;20041;-68
2023/10/27 05:00:15;;;;;;;3.53;1.10;;;;;;;;;;10335873;28;20068;-69
2023/10/27 05:05:18;;;;;;;4.80;1.60;;;;;;;;;;10339112;28;20049;-69
2023/10/27 05:10:22;;;;;;;4.30;1.90;;;;;;;;;;10351234;28;20253;-71
2023/10/27 05:15:25;;;;;;;1.67;0.43;;;;;;;;;;10353391;28;20042;-71
2023/10/27 05:20:28;;;;;;;2.35;1.23;;;;;;;;;;10349702;28;20056;-70
2023/10/27 05:25:32;;;;;;;6.28;1.75;;;;;;;;;;10346588;28;20046;-69
2023/10/27 05:30:34;;;;;;;5.43;1.67;;;;;;;;;;10350065;28;20037;-69
2023/10/27 05:35:37;;;;;;;2.33;1.35;;;;;;;;;;10360409;28;20181;-71
2023/10/27 05:40:41;;;;;;;2.10;0.80;;;;;;;;;;10350652;28;20038;-69
2023/10/27 05:45:43;;;;;;;2.53;1.45;;;;;;;;;;10344536;28;20145;-68
2023/10/27 05:50:46;;;;;;;2.30;1.02;;;;;;;;;;10346809;28;20058;-69
2023/10/27 05:55:50;;;;;;;5.50;1.50;;;;;;;;;;10350880;28;20042;-68
2023/10/27 06:00:53;;;;;;;2.65;1.08;;;;;;;;;;10342674;28;20038;-69
2023/10/27 06:05:56;;;;;;;3.22;0.80;;;;;;;;;;10353901;28;20518;-68
2023/10/27 06:11:00;;;;;;;0.70;0.60;;;;;;;;;;10343400;28;20140;-69
2023/10/27 06:16:02;;;;;;;4.65;1.42;;;;;;;;;;10343331;28;20038;-69
2023/10/27 06:21:05;;;;;;;2.60;1.30;;;;;;;;;;10345453;28;20196;-67
2023/10/27 06:26:09;;;;;;;7.22;2.05;;;;;;;;;;10343614;28;20042;-69
2023/10/27 06:31:11;;;;;;;;;;;;;;;;;;10348189;28;20057;-70
2023/10/27 06:36:14;;;;;;;4.55;1.40;;;;;;;;;;10344138;28;19937;-69
2023/10/27 06:41:18;;;;;;;2.78;1.20;;;;;;;;;;10353126;28;20082;-70
2023/10/27 06:46:20;;;;;;;4.40;1.38;;;;;;;;;;10349780;28;20049;-68
2023/10/27 06:51:23;;;;;;;3.67;1.67;;;;;;;;;;10353247;28;20046;-68
2023/10/27 06:56:28;;;;;;;5.53;2.20;;;;;;;;;;10359641;28;20053;-69
2023/10/27 07:01:30;;;;;;;;;;;;;;;;;;10359360;28;20045;-68
2023/10/27 07:06:33;;;;;;;4.60;2.00;;;;;;;;;;10358103;28;19957;-69
2023/10/27 07:11:35;;;;;;;;;;;;;;;;;;10355490;28;20073;-70
2023/10/27 07:16:38;;;;;;;;;;;;;;;;;;10352918;28;20281;-70
2023/10/27 07:21:41;;;;;;;;;;;;;;;;;;10359202;28;19968;-70
2023/10/27 07:26:44;;;;;;;;;;;;;;;;;;10358032;28;19925;-69
2023/10/27 07:31:46;;;;;;;;;;;;;;;;;;10355797;28;19921;-72
2023/10/27 07:36:48;;;;;;;;;;;;;;;;;;10356380;28;20012;-75
2023/10/27 07:41:51;;;;;;;;;;;;;;;;;;10352392;28;19925;-74
2023/10/27 07:46:53;;;;;;;;;;;;;;;;;;10353135;28;19925;-75
2023/10/27 07:51:56;;;;;;;;;;;;;;;;;;10369281;28;20287;-76
2023/10/27 07:56:59;;;;;;;;;;;;;;;;;;10352045;28;19929;-75
2023/10/27 08:02:03;;;;;;;;;;;;;;;;;;10356039;28;20035;-73
2023/10/27 08:07:06;;;;;;;;;;;;;;;;;;10354877;28;19925;-75
2023/10/27 08:12:09;;;;;;;;;;;;;;;;;;10357181;28;19928;-75
2023/10/27 08:17:12;;;;;;;;;;;;;;;;;;10358906;28;19921;-75
2023/10/27 08:22:15;;;;;;;;;;;;;;;;;;10362743;28;19929;-73
2023/10/27 08:27:17;;;;;;;;;;;;;;;;;;10356646;28;19931;-75
2023/10/27 08:32:21;;;;;;;;;;;;;;;;;;10356130;28;19932;-75
2023/10/27 08:37:25;;;;;;;;;;;;;;;;;;10355629;28;19952;-76
2023/10/27 08:42:28;;;;;;;;;;;;;;;;;;10357210;28;19929;-75
2023/10/27 08:47:33;;;;;;;;;;;;;;;;;;10361951;28;19939;-75
2023/10/27 08:52:35;;;;;;;;;;;;;;;;;;10378453;28;19925;-76
2023/10/27 08:57:37;;;;;;;;;;;;;;;;;;10360185;28;19930;-74
2023/10/27 09:02:40;;;;;;;;;;;;;;;;;;10363983;28;19922;-75
2023/10/27 09:07:42;;;;;;;;;;;;;;;;;;10359957;28;19965;-75
2023/10/27 09:12:46;;;;;;;;;;;;;;;;;;10362505;28;19927;-75
2023/10/27 09:17:49;;;;;;;;;;;;;;;;;;10363678;28;19921;-73
2023/10/27 09:22:51;;;;;;;;;;;;;;;;;;10362892;28;19925;-75
2023/10/27 09:27:54;;;;;;;;;;;;;;;;;;10354844;28;19926;-75
2023/10/27 09:32:56;;;;;;;;;;;;;;;;;;10358818;28;20298;-76
2023/10/27 09:37:59;;;;;;;;;;;;;;;;;;10362450;28;19945;-76
2023/10/27 09:43:02;;;;;;;;;;;;;;;;;;10360142;28;19921;-75
2023/10/27 09:48:05;;;;;;;;;;;;;;;;;;10360170;28;19929;-75
2023/10/27 09:53:08;;;;;;;;;;;;;;;;;;10363779;28;19940;-75
2023/10/27 09:58:10;;;;;;;;;;;;;;;;;;10390536;28;19929;-78
2023/10/27 10:03:13;;;;;;;;;;;;;;;;;;10374686;28;20308;-74
2023/10/27 10:08:15;;;;;;;;;;;;;;;;;;10361676;28;19936;-75
2023/10/27 10:13:19;;;;;;;;;;;;;;;;;;10369645;28;20471;-74
2023/10/27 10:18:22;;;;;;;;;;;;;;;;;;10352896;28;19921;-75
2023/10/27 10:23:25;;;;;;;;;;;;;;;;;;10345832;28;20031;-73
2023/10/27 10:28:29;;;;;;;;;;;;;;;;;;10342169;28;19956;-73
2023/10/27 10:33:31;;;;;;;;;;;;;;;;;;10351510;28;20040;-72
2023/10/27 10:38:34;;;;;;;;;;;;;;;;;;10339285;28;19925;-74
2023/10/27 10:43:37;;;;;;;;;;;;;;;;;;10336562;28;20022;-74
2023/10/27 10:48:39;;;;;;;;;;;;;;;;;;10338991;28;19933;-74
2023/10/27 10:53:42;;;;;;;;;;;;;;;;;;10332999;28;19929;-72
2023/10/27 10:58:44;;;;;;;;;;;;;;;;;;10336018;28;19925;-74
2023/10/27 11:03:46;;;;;;;;;;;;;;;;;;10343172;28;20382;-75
2023/10/27 11:08:49;;;;;;;;;;;;;;;;;;10356041;28;20027;-75
2023/10/27 11:13:52;;;;;;;;;;;;;;;;;;10357041;28;20500;-74
2023/10/27 11:18:57;;;;;;;;;;;;;;;;;;10357979;28;19925;-75
2023/10/27 11:23:59;;;;;;;;;;;;;;;;;;10355854;28;19961;-75
2023/10/27 11:29:01;;;;;;;;;;;;;;;;;;10353966;28;20298;-76
2023/10/27 11:34:04;;;;;;;;;;;;;;;;;;10355754;28;20361;-74
2023/10/27 11:39:06;;;;;;;;;;;;;;;;;;10357960;28;20665;-76
2023/10/27 11:44:09;;;;;;;;;;;;;;;;;;10357453;28;19929;-75
2023/10/27 11:49:11;;;;;;;;;;;;;;;;;;10357666;28;19969;-76
2023/10/27 11:54:15;;;;;;;;;;;;;;;;;;10356320;28;19929;-76
2023/10/27 11:59:17;;;;;;;;;;;;;;;;;;10356006;28;19921;-77
2023/10/27 12:04:20;;;;;;;;;;;;;;;;;;10357704;28;20024;-74
2023/10/27 12:09:22;;;;;;;;;;;;;;;;;;10357246;28;19929;-76
2023/10/27 12:14:26;;;;;;;;;;;;;;;;;;10354126;28;19929;-76
2023/10/27 12:19:28;;;;;;;;;;;;;;;;;;10374200;28;19939;-76
2023/10/27 12:24:33;;;;;;;;;;;;;;;;;;10355069;28;19932;-77
2023/10/27 12:29:36;;;;;;;;;;;;;;;;;;10356359;28;19928;-76
2023/10/27 12:34:38;;;;;;;;;;;;;;;;;;10356194;28;19932;-76
2023/10/27 12:39:42;;;;;;;;;;;;;;;;;;10349132;28;20560;-77
2023/10/27 12:44:45;;;;;;;;;;;;;;;;;;10365848;28;20232;-74
2023/10/27 12:49:48;;;;;;;;;;;;;;;;;;10362176;28;20299;-76
2023/10/27 12:54:51;;;;;;;;;;;;;;;;;;10359527;28;20541;-77
2023/10/27 12:59:53;;;;;;;;;;;;;;;;;;10358459;28;19948;-76
2023/10/27 13:04:56;;;;;;;;;;;;;;;;;;10353761;28;19929;-75
2023/10/27 13:09:58;;;;;;;;;;;;;;;;;;10351952;28;20440;-75
2023/10/27 13:15:01;;;;;;;;;;;;;;;;;;10351547;28;20039;-74
2023/10/27 13:20:04;;;;;;;;;;;;;;;;;;10356116;28;19968;-74
2023/10/27 13:25:07;;;;;;;;;;;;;;;;;;10355513;28;19933;-75
2023/10/27 13:30:09;;;;;;;;;;;;;;;;;;10359069;28;19930;-75
2023/10/27 13:35:11;;;;;;;;;;;;;;;;;;10362553;28;19922;-75
2023/10/27 13:40:18;;;;;;;;;;;;;;;;;;10358040;28;20016;-75
2023/10/27 13:45:20;;;;;;;;;;;;;;;;;;10358924;28;19927;-75
2023/10/27 13:50:23;;;;;;;;;;;;;;;;;;10340993;28;19922;-76
2023/10/27 13:55:25;;;;;;;;;;;;;;;;;;10342956;28;19928;-75
2023/10/27 14:00:28;;;;;;;;;;;;;;;;;;10359163;28;19925;-75
2023/10/27 14:05:30;;;;;;;;;;;;;;;;;;10362289;28;19933;-78
2023/10/27 14:10:32;;;;;;;;;;;;;;;;;;10360709;28;20020;-77
2023/10/27 14:15:35;;;;;;;;;;;;;;;;;;10363977;28;19925;-77
2023/10/27 14:20:38;;;;;;;;;;;;;;;;;;10363111;28;20395;-75
2023/10/27 14:25:41;;;;;;;;;;;;;;;;;;10365083;28;19921;-76
2023/10/27 14:30:44;;;;;;;;;;;;;;;;;;10363770;28;20021;-75
2023/10/27 14:35:47;;;;;;;;;;;;;;;;;;10362817;28;19932;-77
2023/10/27 14:40:49;;;;;;;;;;;;;;;;;;10365311;28;20687;-75
2023/10/27 14:45:51;;;;;;;;;;;;;;;;;;10361854;28;21186;-75
2023/10/27 14:50:54;;;;;;;;;;;;;;;;;;10358558;28;20270;-75
2023/10/27 14:55:57;;;;;;;;;;;;;;;;;;10363059;28;20016;-74
2023/10/27 15:00:59;;;;;;;;;;;;;;;;;;10374101;28;20364;-75
2023/10/27 15:06:02;;;;;;;;;;;;;;;;;;10364021;28;20382;-76
2023/10/27 15:11:07;;;;;;;;;;;;;;;;;;10362367;28;20290;-76
2023/10/27 15:16:10;;;;;;;;;;;;;;;;;;10364731;28;19925;-75
2023/10/27 15:21:12;;;;;;;;;;;;;;;;;;10355674;28;19925;-76
2023/10/27 15:26:15;;;;;;;;;;;;;;;;;;10348839;28;19925;-76
2023/10/27 15:31:18;;;;;;;;;;;;;;;;;;10359809;28;19930;-75
2023/10/27 15:36:20;;;;;;;;;;;;;;;;;;10349330;28;20880;-74
2023/10/27 15:41:23;;;;;;;;;;;;;;;;;;10354842;28;20020;-76
2023/10/27 15:46:25;;;;;;;;;;;;;;;;;;10361123;28;19933;-75
2023/10/27 15:51:28;;;;;;;;;;;;;;;;;;10361747;28;19956;-77
2023/10/27 15:56:30;;;;;;;;;;;;;;;;;;10362383;28;19925;-73
2023/10/27 16:01:32;;;;;;;;;;;;;;;;;;10365358;28;19957;-74
2023/10/27 16:06:35;;;;;;;;;;;;;;;;;;10361618;28;19921;-76
2023/10/27 16:11:37;;;;;;;;;;;;;;;;;;10356129;28;19952;-75
2023/10/27 16:16:41;;;;;;;;;;;;;;;;;;10362760;28;19925;-76
2023/10/27 16:21:43;;;;;;;;;;;;;;;;;;10361134;28;19932;-78
2023/10/27 16:26:46;;;;;;;;;;;;;;;;;;10360710;28;19921;-76
2023/10/27 16:31:48;;;;;;;;;;;;;;;;;;10354584;28;19921;-75
2023/10/27 16:36:50;;;;;;;;;;;;;;;;;;10362441;28;19984;-76
2023/10/27 16:41:53;;;;;;;;;;;;;;;;;;10363584;28;19931;-76
2023/10/27 16:46:55;;;;;;;;;;;;;;;;;;10376362;28;19935;-68
2023/10/27 16:51:58;;;;;;;;;;;;;;;;;;10363386;28;19925;-69
2023/10/27 16:57:01;;;;;;;;;;;;;;;;;;10361333;28;20493;-72
2023/10/27 17:02:09;;;;;;;;;;;;;;;;;;10364124;28;19976;-72
2023/10/27 17:07:11;;;;;;;;;;;;;;;;;;10369616;28;20505;-71
2023/10/27 17:12:14;;;;;;;;;;;;;;;;;;10368179;28;20444;-72
2023/10/27 17:17:16;;;;;;;;;;;;;;;;;;10366605;28;19964;-70
2023/10/27 17:22:19;;;;;;;;;;;;;;;;;;10357854;28;19922;-71
2023/10/27 17:27:21;;;;;;;;;;;;;;;;;;10361534;28;19987;-71
2023/10/27 17:32:26;;;;;;;;;;;;;;;;;;10364092;28;19922;-69
2023/10/27 17:37:28;;;;;;;;;;;;;;;;;;10381520;28;20274;-72
2023/10/27 17:42:32;;;;;;;;;;;;;;;;;;10350975;28;19955;-72
2023/10/27 17:47:35;;;;;;;;;;;;;;;;;;10351431;28;19921;-73
2023/10/27 17:52:38;;;;;;;;;;;;;;;;;;10347908;28;19925;-74
2023/10/27 17:57:45;;;;;;;;;;;;;;;;;;10351766;28;20024;-72
2023/10/27 18:02:48;;;;;;;;;;;;;;;;;;10352531;28;20011;-73
2023/10/27 18:07:53;;;;;;;;;;;;;;;;;;10348072;28;19967;-71
2023/10/27 18:12:55;;;;;;;;;;;;;;;;;;10344310;28;20359;-72
2023/10/27 18:17:58;;;;;;;;;;;;;;;;;;10346089;28;19969;-71
2023/10/27 18:23:01;;;;;;;;;;;;;;;;;;10348056;28;20349;-71
2023/10/27 18:28:06;;;;;;;;;;;;;;;;;;10349002;28;19969;-71
2023/10/27 18:33:09;;;;;;;;;;;;;;;;;;10346867;28;20504;-71
2023/10/27 18:38:13;;;;;;;;;;;;;;;;;;10351163;28;20044;-71
2023/10/27 18:43:15;;;;;;;;;;;;;;;;;;10377914;28;19921;-71
2023/10/27 18:48:17;;;;;;;;;;;;;;;;;;10362562;28;19936;-71
2023/10/27 18:53:20;;;;;;;;;;;;;;;;;;10354098;28;19921;-71
2023/10/27 18:58:22;;;;;;;;;;;;;;;;;;10339982;28;19945;-71
2023/10/27 19:03:30;;;;;;;;;;;;;;;;;;10347543;28;19929;-71
2023/10/27 19:08:33;;;;;;;;;;;;;;;;;;10352819;28;19930;-71
2023/10/27 19:13:36;;;;;;;;;;;;;;;;;;10347131;28;20029;-71
2023/10/27 19:18:39;;;;;;;;;;;;;;;;;;10345153;28;20314;-70
2023/10/27 19:23:41;;;;;;;;;;;;;;;;;;10342031;28;19991;-75
2023/10/27 19:28:44;;;;;;;;;;;;;;;;;;10353023;28;19975;-72
2023/10/27 19:33:47;;;;;;;;;;;;;;;;;;10346761;28;20030;-72
2023/10/27 19:38:51;;;;;;;;;;;;;;;;;;10347254;28;20026;-72
2023/10/27 19:43:53;;;;;;;;;;;;;;;;;;10343668;28;20056;-72
2023/10/27 19:48:56;;;;;;;;;;;;;;;;;;10348393;28;20469;-70
2023/10/27 19:53:58;;;;;;;;;;;;;;;;;;10352164;28;19941;-71
2023/10/27 19:59:00;;;;;;;;;;;;;;;;;;10339442;28;19932;-72
2023/10/27 20:04:06;;;;;;;;;;;;;;;;;;10346132;28;20027;-71
2023/10/27 20:09:11;;;;;;;;;;;;;;;;;;10350508;28;19952;-70
2023/10/27 20:14:14;;;;;;;;;;;;;;;;;;10344694;28;20488;-73
2023/10/27 20:19:18;;;;;;;;;;;;;;;;;;10345178;28;20020;-73
2023/10/27 20:24:20;;;;;;;;;;;;;;;;;;10338877;28;20024;-73
2023/10/27 20:29:23;;;;;;;;;;;;;;;;;;10340896;28;19932;-71
2023/10/27 20:34:25;;;;;;;;;;;;;;;;;;10343299;28;19929;-70
2023/10/27 20:39:28;;;;;;;;;;;;;;;;;;10355121;28;20019;-71
2023/10/27 20:44:31;;;;;;;;;;;;;;;;;;10350802;28;19932;-71
2023/10/27 20:49:33;;;;;;;;;;;;;;;;;;10353448;28;20402;-70
2023/10/27 20:54:35;;;;;;;;;;;;;;;;;;10347417;28;20015;-71
2023/10/27 20:59:38;;;;;;;;;;;;;;;;;;10349967;28;19921;-71
2023/10/27 21:04:40;;;;;;;;;;;;;;;;;;10356243;28;19925;-71
2023/10/27 21:09:43;;;;;;;;;;;;;;;;;;10352034;28;19921;-70
2023/10/27 21:14:46;;;;;;;;;;;;;;;;;;10346183;28;20500;-70
2023/10/27 21:19:48;;;;;;;;;;;;;;;;;;10352770;28;20429;-71
2023/10/27 21:24:51;;;;;;;;;;;;;;;;;;10349457;28;19928;-71
2023/10/27 21:29:53;;;;;;;;;;;;;;;;;;10348904;28;19925;-71
2023/10/27 21:34:55;;;;;;;;;;;;;;;;;;10344076;28;20028;-75
2023/10/27 21:39:58;;;;;;;;;;;;;;;;;;10359033;28;19928;-72
2023/10/27 21:45:00;;;;;;;;;;;;;;;;;;10345237;28;19925;-70
2023/10/27 21:50:03;;;;;;;;;;;;;;;;;;10348532;28;20358;-71
2023/10/27 21:55:06;;;;;;;;;;;;;;;;;;10355222;28;19983;-71
2023/10/27 22:00:13;;;;;;;;;;;;;;;;;;10351293;28;19929;-71
2023/10/27 22:05:15;;;;;;;;;;;;;;;;;;10349640;28;19921;-71
2023/10/27 22:10:19;;;;;;;;;;;;;;;;;;10353734;28;20191;-71
2023/10/27 22:15:23;;;;;;;;;;;;;;;;;;10342126;28;19929;-71
2023/10/27 22:20:25;;;;;;;;;;;;;;;;;;10338700;28;20007;-71
2023/10/27 22:25:28;;;;;;;;;;;;;;;;;;10347020;28;19986;-71
2023/10/27 22:30:31;;;;;;;;;;;;;;;;;;10345522;28;19921;-72
2023/10/27 22:35:33;;;;;;;;;;;;;;;;;;10345360;28;19929;-73
2023/10/27 22:40:36;;;;;;;;;;;;;;;;;;10343395;28;19941;-71
2023/10/27 22:45:39;;;;;;;;;;;;;;;;;;10343780;28;19929;-72
2023/10/27 22:50:41;;;;;;;;;;;;;;;;;;10349057;28;20333;-71
2023/10/27 22:55:44;;;;;;;;;;;;;;;;;;10343752;28;19922;-71
2023/10/27 23:00:46;;;;;;;;;;;;;;;;;;10340305;28;19931;-71
2023/10/27 23:05:49;;;;;;;;;;;;;;;;;;10359596;28;19965;-71
2023/10/27 23:10:52;;;;;;;;;;;;;;;;;;10349409;28;20095;-71
2023/10/27 23:15:54;;;;;;;;;;;;;;;;;;10342001;28;19980;-71
2023/10/27 23:20:57;;;;;;;;;;;;;;;;;;10348005;28;19952;-71
2023/10/27 23:26:01;;;;;;;;;;;;;;;;;;10342039;28;20004;-70
2023/10/27 23:31:03;;;;;;;;;;;;;;;;;;10341131;28;19922;-71
2023/10/27 23:36:08;;;;;;;;;;;;;;;;;;10376072;28;20423;-71
2023/10/27 23:41:10;;;;;;;;;;;;;;;;;;10338978;28;19930;-71
2023/10/27 23:46:13;;;;;;;;;;;;;;;;;;10340576;28;20004;-74
2023/10/27 23:51:16;;;;;;;;;;;;;;;;;;10340355;28;19921;-69
2023/10/27 23:56:18;;;;;;;;;;;;;;;;;;10343563;28;19925;-71
